createdAt,value
2019-03-20T00:01:13.964Z,1024.81
2019-03-20T00:06:09.197Z,1024.90
2019-03-20T00:11:04.729Z,1024.94
2019-03-20T00:16:00.146Z,1024.96
2019-03-20T00:20:55.739Z,1024.94
2019-03-20T00:25:51.429Z,1024.97
2019-03-20T00:30:48.107Z,1024.98
2019-03-20T00:35:43.822Z,1024.95
2019-03-20T00:40:39.606Z,1024.88
2019-03-20T00:45:35.029Z,1024.85
2019-03-20T00:50:31.714Z,1024.80
2019-03-20T00:55:28.586Z,1024.81
2019-03-20T01:00:24.010Z,1024.82
2019-03-20T01:05:20.731Z,1024.89
2019-03-20T01:10:17.077Z,1024.85
2019-03-20T01:15:12.054Z,1024.88
2019-03-20T01:20:07.605Z,1024.78
2019-03-20T01:25:03.613Z,1024.80
2019-03-20T01:29:59.412Z,1024.75
2019-03-20T01:34:55.179Z,1024.69
2019-03-20T01:39:50.459Z,1024.68
2019-03-20T01:44:46.117Z,1024.85
2019-03-20T01:49:41.832Z,1024.86
2019-03-20T01:54:37.545Z,1024.92
2019-03-20T01:59:33.229Z,1024.82
2019-03-20T02:04:29.051Z,1024.95
2019-03-20T02:09:24.777Z,1024.83
2019-03-20T02:14:21.136Z,1024.90
2019-03-20T02:19:16.895Z,1024.87
2019-03-20T02:24:12.468Z,1024.82
2019-03-20T02:29:09.538Z,1024.87
2019-03-20T02:34:04.803Z,1024.91
2019-03-20T02:39:00.376Z,1024.97
2019-03-20T02:43:57.161Z,1024.89
2019-03-20T02:48:52.517Z,1024.88
2019-03-20T02:53:48.007Z,1024.91
2019-03-20T02:58:43.435Z,1024.78
2019-03-20T03:03:39.028Z,1024.86
2019-03-20T03:08:34.672Z,1024.88
2019-03-20T03:13:30.457Z,1025.02
2019-03-20T03:18:26.118Z,1024.92
2019-03-20T03:23:21.789Z,1024.90
2019-03-20T03:28:17.363Z,1024.99
2019-03-20T03:33:13.231Z,1024.95
2019-03-20T03:38:08.974Z,1024.99
2019-03-20T03:43:05.377Z,1024.91
2019-03-20T03:48:01.147Z,1024.82
2019-03-20T03:52:56.883Z,1024.88
2019-03-20T03:57:52.538Z,1024.81
2019-03-20T04:02:48.099Z,1024.92
2019-03-20T04:07:43.840Z,1025.03
2019-03-20T04:12:41.046Z,1024.91
2019-03-20T04:17:36.509Z,1024.89
2019-03-20T04:22:32.336Z,1024.93
2019-03-20T04:27:28.047Z,1024.91
2019-03-20T04:32:23.647Z,1024.87
2019-03-20T04:37:20.432Z,1024.83
2019-03-20T04:42:16.201Z,1024.74
2019-03-20T04:47:11.979Z,1024.82
2019-03-20T04:52:07.743Z,1024.83
2019-03-20T04:57:03.355Z,1024.83
2019-03-20T05:01:59.095Z,1024.91
2019-03-20T05:06:59.191Z,1024.99
2019-03-20T05:11:53.870Z,1025.00
2019-03-20T05:16:50.569Z,1025.05
2019-03-20T05:21:45.970Z,1025.14
2019-03-20T05:26:41.697Z,1025.14
2019-03-20T05:31:37.327Z,1025.23
2019-03-20T05:36:33.656Z,1025.36
2019-03-20T05:41:29.315Z,1025.34
2019-03-20T05:46:24.963Z,1025.42
2019-03-20T05:51:20.619Z,1025.42
2019-03-20T05:56:16.637Z,1025.46
2019-03-20T06:01:12.346Z,1025.54
2019-03-20T06:06:09.139Z,1025.60
2019-03-20T06:11:04.730Z,1025.58
2019-03-20T06:16:01.457Z,1025.55
2019-03-20T06:20:57.742Z,1025.52
2019-03-20T06:25:53.739Z,1025.70
2019-03-20T06:30:50.428Z,1025.59
2019-03-20T06:35:46.239Z,1025.57
2019-03-20T06:40:41.995Z,1025.60
2019-03-20T06:45:38.155Z,1025.62
2019-03-20T06:50:34.023Z,1025.48
2019-03-20T06:55:29.860Z,1025.59
2019-03-20T07:00:25.789Z,1025.66
2019-03-20T07:05:22.560Z,1025.72
2019-03-20T07:10:18.699Z,1025.71
2019-03-20T07:15:14.540Z,1025.65
2019-03-20T07:20:10.218Z,1025.67
2019-03-20T07:25:05.930Z,1025.86
2019-03-20T07:30:02.472Z,1025.90
2019-03-20T07:34:59.804Z,1025.84
2019-03-20T07:39:55.512Z,1025.90
2019-03-20T07:44:52.342Z,1025.91
2019-03-20T07:49:47.601Z,1025.87
2019-03-20T07:54:42.973Z,1025.88
2019-03-20T07:59:38.859Z,1025.82
2019-03-20T08:04:34.887Z,1025.99
2019-03-20T08:09:31.270Z,1026.02
2019-03-20T08:14:28.596Z,1026.10
2019-03-20T08:19:25.365Z,1026.22
2019-03-20T08:24:22.011Z,1026.38
2019-03-20T08:29:18.621Z,1026.48
2019-03-20T08:34:15.182Z,1026.55
2019-03-20T08:39:11.154Z,1026.54
2019-03-20T08:44:06.971Z,1026.53
2019-03-20T08:49:03.107Z,1026.59
2019-03-20T08:53:58.698Z,1026.66
2019-03-20T08:58:54.372Z,1026.73
2019-03-20T09:03:50.445Z,1026.69
2019-03-20T09:08:47.381Z,1026.69
2019-03-20T09:13:42.980Z,1026.70
2019-03-20T09:18:39.111Z,1026.65
2019-03-20T09:23:34.900Z,1026.73
2019-03-20T09:28:32.135Z,1026.58
2019-03-20T09:33:28.866Z,1026.76
2019-03-20T09:38:24.869Z,1026.69
2019-03-20T09:43:20.856Z,1026.83
2019-03-20T09:48:17.082Z,1026.67
2019-03-20T09:53:13.247Z,1026.61
2019-03-20T09:58:11.697Z,1026.63
2019-03-20T10:03:07.240Z,1026.53
2019-03-20T10:08:03.900Z,1026.50
2019-03-20T10:12:59.979Z,1026.50
2019-03-20T10:17:55.997Z,1026.57
2019-03-20T10:22:52.840Z,1026.54
2019-03-20T10:27:48.315Z,1026.52
2019-03-20T10:32:44.048Z,1026.59
2019-03-20T10:37:39.671Z,1026.49
2019-03-20T10:42:35.600Z,1026.53
2019-03-20T10:47:31.714Z,1026.58
2019-03-20T10:52:27.853Z,1026.62
2019-03-20T10:57:23.545Z,1026.66
2019-03-20T11:02:20.429Z,1026.74
2019-03-20T11:07:17.234Z,1026.75
2019-03-20T11:12:12.692Z,1026.73
2019-03-20T11:17:08.397Z,1026.68
2019-03-20T11:22:04.764Z,1026.75
2019-03-20T11:27:00.858Z,1026.76
2019-03-20T11:31:57.369Z,1026.86
2019-03-20T11:36:54.754Z,1026.96
2019-03-20T11:41:50.259Z,1026.90
2019-03-20T11:46:46.769Z,1026.85
2019-03-20T11:51:42.299Z,1027.00
2019-03-20T11:56:38.670Z,1026.91
2019-03-20T12:01:34.968Z,1026.94
2019-03-20T12:06:30.972Z,1026.95
2019-03-20T12:11:27.087Z,1026.97
2019-03-20T12:16:22.777Z,1027.05
2019-03-20T12:21:20.015Z,1026.99
2019-03-20T12:26:16.266Z,1026.94
2019-03-20T12:31:12.286Z,1027.02
2019-03-20T12:36:09.178Z,1026.96
2019-03-20T12:41:04.608Z,1026.94
2019-03-20T12:46:01.404Z,1026.97
2019-03-20T12:50:57.731Z,1026.95
2019-03-20T12:55:54.458Z,1027.03
2019-03-20T13:00:50.178Z,1027.05
2019-03-20T13:05:45.955Z,1027.10
2019-03-20T13:10:41.249Z,1027.10
2019-03-20T13:15:37.258Z,1027.16
2019-03-20T13:20:32.992Z,1027.17
2019-03-20T13:25:28.964Z,1027.18
2019-03-20T13:30:25.687Z,1027.14
2019-03-20T13:35:21.005Z,1027.14
2019-03-20T13:40:17.231Z,1027.08
2019-03-20T13:45:13.313Z,1027.08
2019-03-20T13:50:09.617Z,1027.00
2019-03-20T13:55:05.357Z,1027.02
2019-03-20T14:00:01.126Z,1027.06
2019-03-20T14:04:56.780Z,1027.10
2019-03-20T14:09:52.256Z,1027.03
2019-03-20T14:14:48.029Z,1027.01
2019-03-20T14:19:43.987Z,1026.99
2019-03-20T14:24:39.723Z,1027.01
2019-03-20T14:29:35.652Z,1026.98
2019-03-20T14:34:31.524Z,1027.04
2019-03-20T14:39:27.261Z,1027.07
2019-03-20T14:44:23.011Z,1027.04
2019-03-20T14:49:19.735Z,1027.00
2019-03-20T14:54:16.402Z,1027.04
2019-03-20T14:59:11.619Z,1027.05
2019-03-20T15:04:08.249Z,1026.94
2019-03-20T15:09:03.898Z,1027.00
2019-03-20T15:14:00.798Z,1026.93
2019-03-20T15:18:56.377Z,1026.93
2019-03-20T15:23:53.337Z,1026.90
2019-03-20T15:28:48.910Z,1026.91
2019-03-20T15:33:44.646Z,1026.84
2019-03-20T15:38:40.815Z,1026.88
2019-03-20T15:43:37.447Z,1026.84
2019-03-20T15:48:34.303Z,1026.82
2019-03-20T15:53:29.878Z,1026.71
2019-03-20T15:58:26.720Z,1026.73
2019-03-20T16:03:22.322Z,1026.70
2019-03-20T16:08:19.071Z,1026.64
2019-03-20T16:13:14.572Z,1026.72
2019-03-20T16:18:10.734Z,1026.70
2019-03-20T16:23:06.442Z,1026.81
2019-03-20T16:28:01.812Z,1026.80
2019-03-20T16:32:57.720Z,1026.77
2019-03-20T16:37:53.361Z,1026.80
2019-03-20T16:42:49.379Z,1026.87
2019-03-20T16:47:45.187Z,1026.95
2019-03-20T16:52:40.879Z,1026.98
2019-03-20T16:57:36.492Z,1026.92
2019-03-20T17:02:32.135Z,1026.99
2019-03-20T17:07:27.906Z,1026.97
2019-03-20T17:12:24.030Z,1027.07
2019-03-20T17:17:21.640Z,1026.96
2019-03-20T17:22:16.818Z,1026.92
2019-03-20T17:27:12.645Z,1026.86
2019-03-20T17:32:08.484Z,1026.86
2019-03-20T17:37:04.768Z,1026.94
2019-03-20T17:42:00.565Z,1026.96
2019-03-20T17:46:56.272Z,1026.96
2019-03-20T17:51:51.918Z,1027.00
2019-03-20T17:56:48.144Z,1027.00
2019-03-20T18:01:44.689Z,1027.09
2019-03-20T18:06:40.214Z,1027.14
2019-03-20T18:11:36.033Z,1027.12
2019-03-20T18:16:32.431Z,1027.16
2019-03-20T18:21:28.985Z,1027.25
2019-03-20T18:26:25.428Z,1027.30
2019-03-20T18:31:21.142Z,1027.35
2019-03-20T18:36:17.040Z,1027.40
2019-03-20T18:41:13.466Z,1027.41
2019-03-20T18:46:09.760Z,1027.54
2019-03-20T18:51:07.169Z,1027.46
2019-03-20T18:56:03.026Z,1027.55
2019-03-20T19:00:58.966Z,1027.49
2019-03-20T19:05:55.093Z,1027.59
2019-03-20T19:10:52.461Z,1027.63
2019-03-20T19:15:48.416Z,1027.73
2019-03-20T19:20:44.240Z,1027.65
2019-03-20T19:25:41.174Z,1027.67
2019-03-20T19:30:36.642Z,1027.69
2019-03-20T19:40:35.623Z,1027.82
2019-03-20T19:45:32.324Z,1027.80
2019-03-20T19:50:29.174Z,1027.75
2019-03-20T19:55:24.373Z,1027.80
2019-03-20T20:00:20.064Z,1027.76
2019-03-20T20:05:16.416Z,1027.79
2019-03-20T20:10:12.301Z,1027.88
2019-03-20T20:15:08.072Z,1027.73
2019-03-20T20:20:04.819Z,1027.67
2019-03-20T20:25:01.442Z,1027.63
2019-03-20T20:29:56.671Z,1027.66
2019-03-20T20:34:53.555Z,1027.72
2019-03-20T20:39:49.307Z,1027.79
2019-03-20T20:44:46.041Z,1027.78
2019-03-20T20:49:41.510Z,1027.80
2019-03-20T20:54:37.874Z,1027.81
2019-03-20T20:59:33.469Z,1027.83
2019-03-20T21:04:29.163Z,1027.80
2019-03-20T21:09:25.184Z,1027.81
2019-03-20T21:14:21.006Z,1027.77
2019-03-20T21:19:17.042Z,1027.78
2019-03-20T21:24:12.848Z,1027.73
2019-03-20T21:29:08.375Z,1027.73
2019-03-20T21:34:04.209Z,1027.71
2019-03-20T21:39:00.012Z,1027.65
2019-03-20T21:43:56.453Z,1027.72
2019-03-20T21:48:52.342Z,1027.66
2019-03-20T21:53:47.914Z,1027.73
2019-03-20T21:58:43.528Z,1027.69
2019-03-20T22:03:39.639Z,1027.76
2019-03-20T22:08:35.375Z,1027.79
2019-03-20T22:13:31.630Z,1027.83
2019-03-20T22:18:27.434Z,1027.81
2019-03-20T22:23:24.541Z,1027.87
2019-03-20T22:28:20.396Z,1027.87
2019-03-20T22:33:16.644Z,1027.82
2019-03-20T22:38:13.788Z,1027.82
2019-03-20T22:43:09.228Z,1027.89
2019-03-20T22:48:04.757Z,1027.78
2019-03-20T22:53:00.699Z,1027.79
2019-03-20T22:57:56.750Z,1027.94
2019-03-20T23:02:52.443Z,1027.92
2019-03-20T23:07:48.399Z,1027.83
2019-03-20T23:12:45.145Z,1027.93
2019-03-20T23:17:40.816Z,1027.87
2019-03-20T23:22:36.686Z,1027.90
2019-03-20T23:27:32.270Z,1027.88
2019-03-20T23:32:28.185Z,1027.88
2019-03-20T23:37:23.918Z,1027.87
2019-03-20T23:42:19.711Z,1027.88
2019-03-20T23:47:16.355Z,1027.93
2019-03-20T23:52:12.022Z,1028.04
2019-03-20T23:57:07.931Z,1028.06
